Hikarimaru No.17 — JD2956 — position and weather

sailwx.info

Track history (hours):
 
Tides and Currents Weather Stations Pressure Air Temp Water Temp Dewpoint Dewpoint Depression Visibility Wind Speed Wind Dir Waves Ship Positions

Hikarimaru No.17

Last reported at 2015-Jan-30 07:30 UTC. Time now 2015-Jan-30 21:37 UTC.
Position N 34°36' E 134°52'.

Length 105 m; draft 5.5 m.

Type: Tanker. MMSI: 431000984.

Date/timePositionNaut miles runAvg speedWind from/ knotsBaromVisibWave heightAir tempDewpointWater temp
2015-Jan-30 07:30N 34°36' E 134°52'1111.2
2015-Jan-30 06:34N 34°34' E 135°05'1313.2
2015-Jan-30 05:34N 34°21' E 135°01'1212.2
2015-Jan-30 04:33N 34°09' E 134°60'7 1.0
2015-Jan-29 21:33N 34°03' E 135°03'8 7.1
2015-Jan-29 20:28N 34°10' E 135°07'0 0.1
2015-Jan-29 19:31N 34°10' E 135°07'0 0.0
2015-Jan-29 18:31N 34°10' E 135°07'0 0.0
2015-Jan-29 17:31N 34°10' E 135°07'0 0.0
2015-Jan-29 16:31N 34°10' E 135°07'0 0.1
2015-Jan-29 15:31N 34°10' E 135°07'0 0.0
2015-Jan-29 14:31N 34°10' E 135°07'0 0.0
2015-Jan-29 13:31N 34°10' E 135°07'0 0.0
2015-Jan-29 12:31N 34°10' E 135°07'0 0.1
2015-Jan-29 11:31N 34°10' E 135°07'0 0.0
2015-Jan-29 10:31N 34°10' E 135°07'0 0.0
2015-Jan-29 09:31N 34°10' E 135°07'0 0.0
2015-Jan-29 08:31N 34°10' E 135°07'0 0.1
2015-Jan-29 07:33N 34°10' E 135°07'1211.0
2015-Jan-29 06:27N 34°20' E 134°60'1213.0
2015-Jan-29 05:33N 34°27' E 135°11'1313.1
2015-Jan-29 04:33N 34°33' E 135°25'4 0.7
2015-Jan-28 23:33N 34°33' E 135°20'2 1.7
2015-Jan-28 22:26N 34°32' E 135°18'0 0.0
2015-Jan-28 21:32N 34°32' E 135°18'0 0.0
2015-Jan-28 20:32N 34°32' E 135°18'0 0.0
2015-Jan-28 19:32N 34°32' E 135°18'0 0.0
2015-Jan-28 18:32N 34°32' E 135°18'0 0.0
2015-Jan-28 17:32N 34°32' E 135°18'0 0.0
2015-Jan-28 16:32N 34°32' E 135°18'0 0.0
2015-Jan-28 15:32N 34°32' E 135°18'0 0.0
2015-Jan-28 14:32N 34°32' E 135°18'0 0.0
2015-Jan-28 13:32N 34°32' E 135°18'0 0.0
2015-Jan-28 12:32N 34°32' E 135°18'0 0.0
2015-Jan-28 11:20N 34°32' E 135°18'0 0.0
2015-Jan-28 10:14N 34°32' E 135°18'0 0.0
2015-Jan-28 09:32N 34°32' E 135°18'4 3.9
2015-Jan-28 08:33N 34°33' E 135°14'1312.8
2015-Jan-28 07:33N 34°37' E 134°59'14 0.9
2015-Jan-27 16:30N 34°40' E 134°42'1414.5
2015-Jan-27 15:33N 34°37' E 134°59'1010.0
2015-Jan-27 14:33N 34°28' E 135°03'1312.2
2015-Jan-27 13:29N 34°15' E 134°60'9 0.6
2015-Jan-26 23:32N 34°09' E 135°07'0 0.0
2015-Jan-26 22:32N 34°09' E 135°07'0 0.0
2015-Jan-26 21:29N 34°09' E 135°07'0 0.0
2015-Jan-26 20:29N 34°09' E 135°07'0 0.0
2015-Jan-26 19:32N 34°09' E 135°07'0 0.0
2015-Jan-26 18:32N 34°09' E 135°07'0 0.0
2015-Jan-26 17:32N 34°09' E 135°07'0 0.0
2015-Jan-26 16:32N 34°09' E 135°07'0 0.1
2015-Jan-26 15:32N 34°09' E 135°07'0 0.1
2015-Jan-26 14:32N 34°09' E 135°07'0 0.1
2015-Jan-26 13:29N 34°09' E 135°07'0 0.1
2015-Jan-26 12:32N 34°09' E 135°07'0 0.1
2015-Jan-26 11:23N 34°09' E 135°07'0 0.1
2015-Jan-26 10:32N 34°09' E 135°07'0 0.0
2015-Jan-26 09:32N 34°09' E 135°07'0 0.0
2015-Jan-26 08:32N 34°09' E 135°07'0 0.1
2015-Jan-26 07:32N 34°09' E 135°07'0 0.1
2015-Jan-26 06:23N 34°09' E 135°07'0 0.0
2015-Jan-26 05:32N 34°09' E 135°07'0 0.1
2015-Jan-26 04:32N 34°09' E 135°07'1110.6
2015-Jan-26 03:31N 33°60' E 135°02'2 0.3
2015-Jan-25 21:33N 34°01' E 135°02'8 8.1
2015-Jan-25 20:31N 34°09' E 135°07'0 0.1
2015-Jan-25 19:31N 34°09' E 135°07'0 0.0
2015-Jan-25 18:31N 34°09' E 135°07'0 0.0
2015-Jan-25 17:31N 34°09' E 135°07'0 0.0
2015-Jan-25 16:31N 34°09' E 135°07'0 0.0
2015-Jan-25 15:31N 34°09' E 135°07'0 0.0
2015-Jan-25 14:31N 34°09' E 135°07'0 0.0
2015-Jan-25 13:31N 34°09' E 135°07'0 0.0
2015-Jan-25 12:31N 34°09' E 135°07'0 0.1
2015-Jan-25 11:31N 34°09' E 135°07'0 0.0
2015-Jan-25 10:28N 34°09' E 135°07'0 0.0
2015-Jan-25 09:31N 34°09' E 135°07'0 0.0
2015-Jan-25 08:28N 34°09' E 135°07'0 0.1
2015-Jan-25 07:33N 34°09' E 135°07'1212.0
2015-Jan-25 06:33N 34°19' E 134°59'1313.2
2015-Jan-25 05:34N 34°32' E 135°02'8 7.9
2015-Jan-25 04:33N 34°35' E 134°53'  
Track history (hours):
 
Tides and Currents Weather Stations Pressure Air Temp Water Temp Dewpoint Dewpoint Depression Visibility Wind Speed Wind Dir Waves Ship Positions

Hikarimaru No.17

Last reported at 2015-Jan-30 07:30 UTC. Time now 2015-Jan-30 21:37 UTC.
Position N 34°36' E 134°52'.

Length 105 m; draft 5.5 m.

Type: Tanker. MMSI: 431000984.

Date/timePositionNaut miles runAvg speedWind from/ knotsBaromVisibWave heightAir tempDewpointWater temp
2015-Jan-30 07:30N 34°36' E 134°52'1111.2
2015-Jan-30 06:34N 34°34' E 135°05'1313.2
2015-Jan-30 05:34N 34°21' E 135°01'1212.2
2015-Jan-30 04:33N 34°09' E 134°60'7 1.0
2015-Jan-29 21:33N 34°03' E 135°03'8 7.1
2015-Jan-29 20:28N 34°10' E 135°07'0 0.1
2015-Jan-29 19:31N 34°10' E 135°07'0 0.0
2015-Jan-29 18:31N 34°10' E 135°07'0 0.0
2015-Jan-29 17:31N 34°10' E 135°07'0 0.0
2015-Jan-29 16:31N 34°10' E 135°07'0 0.1
2015-Jan-29 15:31N 34°10' E 135°07'0 0.0
2015-Jan-29 14:31N 34°10' E 135°07'0 0.0
2015-Jan-29 13:31N 34°10' E 135°07'0 0.0
2015-Jan-29 12:31N 34°10' E 135°07'0 0.1
2015-Jan-29 11:31N 34°10' E 135°07'0 0.0
2015-Jan-29 10:31N 34°10' E 135°07'0 0.0
2015-Jan-29 09:31N 34°10' E 135°07'0 0.0
2015-Jan-29 08:31N 34°10' E 135°07'0 0.1
2015-Jan-29 07:33N 34°10' E 135°07'1211.0
2015-Jan-29 06:27N 34°20' E 134°60'1213.0
2015-Jan-29 05:33N 34°27' E 135°11'1313.1
2015-Jan-29 04:33N 34°33' E 135°25'4 0.7
2015-Jan-28 23:33N 34°33' E 135°20'2 1.7
2015-Jan-28 22:26N 34°32' E 135°18'0 0.0
2015-Jan-28 21:32N 34°32' E 135°18'0 0.0
2015-Jan-28 20:32N 34°32' E 135°18'0 0.0
2015-Jan-28 19:32N 34°32' E 135°18'0 0.0
2015-Jan-28 18:32N 34°32' E 135°18'0 0.0
2015-Jan-28 17:32N 34°32' E 135°18'0 0.0
2015-Jan-28 16:32N 34°32' E 135°18'0 0.0
2015-Jan-28 15:32N 34°32' E 135°18'0 0.0
2015-Jan-28 14:32N 34°32' E 135°18'0 0.0
2015-Jan-28 13:32N 34°32' E 135°18'0 0.0
2015-Jan-28 12:32N 34°32' E 135°18'0 0.0
2015-Jan-28 11:20N 34°32' E 135°18'0 0.0
2015-Jan-28 10:14N 34°32' E 135°18'0 0.0
2015-Jan-28 09:32N 34°32' E 135°18'4 3.9
2015-Jan-28 08:33N 34°33' E 135°14'1312.8
2015-Jan-28 07:33N 34°37' E 134°59'14 0.9
2015-Jan-27 16:30N 34°40' E 134°42'1414.5
2015-Jan-27 15:33N 34°37' E 134°59'1010.0
2015-Jan-27 14:33N 34°28' E 135°03'1312.2
2015-Jan-27 13:29N 34°15' E 134°60'9 0.6
2015-Jan-26 23:32N 34°09' E 135°07'0 0.0
2015-Jan-26 22:32N 34°09' E 135°07'0 0.0
2015-Jan-26 21:29N 34°09' E 135°07'0 0.0
2015-Jan-26 20:29N 34°09' E 135°07'0 0.0
2015-Jan-26 19:32N 34°09' E 135°07'0 0.0
2015-Jan-26 18:32N 34°09' E 135°07'0 0.0
2015-Jan-26 17:32N 34°09' E 135°07'0 0.0
2015-Jan-26 16:32N 34°09' E 135°07'0 0.1
2015-Jan-26 15:32N 34°09' E 135°07'0 0.1
2015-Jan-26 14:32N 34°09' E 135°07'0 0.1
2015-Jan-26 13:29N 34°09' E 135°07'0 0.1
2015-Jan-26 12:32N 34°09' E 135°07'0 0.1
2015-Jan-26 11:23N 34°09' E 135°07'0 0.1
2015-Jan-26 10:32N 34°09' E 135°07'0 0.0
2015-Jan-26 09:32N 34°09' E 135°07'0 0.0
2015-Jan-26 08:32N 34°09' E 135°07'0 0.1
2015-Jan-26 07:32N 34°09' E 135°07'0 0.1
2015-Jan-26 06:23N 34°09' E 135°07'0 0.0
2015-Jan-26 05:32N 34°09' E 135°07'0 0.1
2015-Jan-26 04:32N 34°09' E 135°07'1110.6
2015-Jan-26 03:31N 33°60' E 135°02'2 0.3
2015-Jan-25 21:33N 34°01' E 135°02'8 8.1
2015-Jan-25 20:31N 34°09' E 135°07'0 0.1
2015-Jan-25 19:31N 34°09' E 135°07'0 0.0
2015-Jan-25 18:31N 34°09' E 135°07'0 0.0
2015-Jan-25 17:31N 34°09' E 135°07'0 0.0
2015-Jan-25 16:31N 34°09' E 135°07'0 0.0
2015-Jan-25 15:31N 34°09' E 135°07'0 0.0
2015-Jan-25 14:31N 34°09' E 135°07'0 0.0
2015-Jan-25 13:31N 34°09' E 135°07'0 0.0
2015-Jan-25 12:31N 34°09' E 135°07'0 0.1
2015-Jan-25 11:31N 34°09' E 135°07'0 0.0
2015-Jan-25 10:28N 34°09' E 135°07'0 0.0
2015-Jan-25 09:31N 34°09' E 135°07'0 0.0
2015-Jan-25 08:28N 34°09' E 135°07'0 0.1
2015-Jan-25 07:33N 34°09' E 135°07'1212.0
2015-Jan-25 06:33N 34°19' E 134°59'1313.2
2015-Jan-25 05:34N 34°32' E 135°02'8 7.9
2015-Jan-25 04:33N 34°35' E 134°53'  

Dump ship's entire track history